Ann Arbor, MI

4:15 AM EDT on September 03, 2014 (GMT -0400)
Walker Briar Works | Change Station
CLOSE
Current Station
Personal Weather Station
Location: Ann Arbor, MI
Elevation: 961 ft
Nearby Weather Stations

Elev 961 ft 42.26 °N, 83.77 °W | Updated 5 minutes ago

Fog
Fog
61.5 °F
Feels Like 61.5 °F
N
0.0
Wind Variable Wind from North
Gusts 0.0 mph

Today
High -- | Low -- °F
--% Chance of Precip.
Yesterday
High -- | Low -- °F
Precip. -- in
7:02 AM 8:05 PM
First Quarter, 60% visible
Pressure 29.98 in
Visibility 0.2 miles
Clouds
Dew Point 60 °F
Humidity 94%
Rainfall 0.00 in
Snow Depth Not available.
UV Not available.
Pollen 7.10 out of 12
Ozone Good
PM2.5 Moderate
Flu Activity Not available.
SPECI KARB 030803Z AUTO 00000KT 1/4SM FG VV002 12/12 A2998 RMK AO2 T01220117

More Conditions Fewer Conditions

Pressure 29.98 in
Visibility 0.2 miles
Clouds
Dew Point 60 °F
Humidity 94%
Rainfall 0.00 in
Snow Depth Not available.
UV Not available.
Pollen 7.10 out of 12
Ozone Good
PM2.5 Moderate
Flu Activity Not available.
SPECI KARB 030803Z AUTO 00000KT 1/4SM FG VV002 12/12 A2998 RMK AO2 T01220117

More Conditions Fewer Conditions

10-Day Weather Forecast

Almanac

Astronomy

Sep. 03, 2014 Rise Set
Actual Time 7:02 AM EDT 8:05 PM EDT
Civil Twilight 6:33 AM EDT 8:34 PM EDT
Nautical Twilight 5:59 AM EDT 9:08 PM EDT
Astronomical Twilight 5:23 AM EDT 9:44 PM EDT
Moon 3:50 PM EDT 12:52 AM EDT
Length of Visible Light 14h 00m
Length of Day
13h 03m
Tomorrow will be 2m 45s shorter.
First Quarter, 60% of the Moon is Illuminated
Today
First Quarter
Sep 8
Full
Sep 15
Last Quarter
Sep 24
New
Oct 1
First Quarter

Today's Extremes

State Highs State Lows

Community

WunderPhotos

Upload Photos

1,749,902 photos uploaded!

Nearby

Air Quality

  Air Quality AQ Index Pollutant
Yesterday Good
PM2.5
Yesterday Good
OZONE
Current Moderate
PM2.5
Current Good
OZONE
Wednesday Moderate
PM2.5
Wednesday Good
OZONE
Thursday Moderate
PM2.5
Thursday Good
OZONE
Friday Moderate
PM2.5
Friday Good
OZONE
Saturday Good
OZONE
Saturday Good
PM2.5
Sunday Good
OZONE
Sunday Good
PM2.5

Snow Depth

Station Depth Elevation
No new snow has been reported.

Earthquake Activity

City Distance Mag. Time & Date
No recent earthquake activity has been reported nearby.
Minimum magnitude displayed is 2.5.

Coastal Water Temperatures

Place Temperature
No Stations Reporting

Nearby Weather Stations